Time;durP1;ratioP1;P1;durP2;ratioP2;P2;SDS_P1;SDS_P2;PMS_P1;PMS_P2;Temp;Humidity;BMP_temperature;BMP_pressure;BME280_temperature;BME280_humidity;BME280_pressure;Samples;Min_cycle;Max_cycle;Signal;HPM_P1;HPM_P2
2022/01/09 09:35:41;;;;;;;7.00;1.13;;;5.70;99.90;;;;;;3604818;23;20306;-75
2022/01/09 09:38:09;;;;;;;5.60;0.80;;;5.80;99.90;;;;;;4952993;28;20216;-77
2022/01/09 09:40:36;;;;;;;5.30;0.73;;;5.70;99.90;;;;;;4953269;28;20216;-78
2022/01/09 09:43:03;;;;;;;3.00;0.63;;;5.70;99.90;;;;;;4952133;28;20228;-78
2022/01/09 09:45:30;;;;;;;6.83;1.00;;;5.80;99.90;;;;;;4938004;29;20212;-73
2022/01/09 09:47:57;;;;;;;6.33;0.90;;;5.80;99.90;;;;;;4955684;28;20339;-78
2022/01/09 09:50:25;;;;;;;3.03;0.80;;;6.00;99.90;;;;;;4956071;28;20663;-74
2022/01/09 09:52:52;;;;;;;5.83;0.70;;;6.20;99.90;;;;;;4951948;28;20233;-74
2022/01/09 09:55:20;;;;;;;5.33;0.80;;;6.20;99.90;;;;;;4941117;29;20240;-73
2022/01/09 09:57:47;;;;;;;8.47;1.10;;;6.20;99.90;;;;;;4948602;28;20299;-73
2022/01/09 10:00:17;;;;;;;5.23;1.27;;;6.20;99.90;;;;;;4935284;29;20209;-71
2022/01/09 10:02:46;;;;;;;7.07;1.47;;;6.20;99.90;;;;;;4935893;29;20225;-73
2022/01/09 10:05:15;;;;;;;4.37;0.80;;;6.20;99.90;;;;;;4940025;29;20214;-75
2022/01/09 10:07:42;;;;;;;6.17;1.00;;;6.20;99.90;;;;;;4955215;28;20208;-74
2022/01/09 10:10:11;;;;;;;11.90;1.23;;;6.30;99.90;;;;;;4943114;28;20213;-73
2022/01/09 10:12:39;;;;;;;7.80;1.10;;;6.30;99.90;;;;;;4935391;29;20229;-72
2022/01/09 10:15:09;;;;;;;6.23;0.90;;;6.40;99.90;;;;;;4939566;29;20232;-76
2022/01/09 10:17:40;;;;;;;6.73;0.90;;;6.50;99.90;;;;;;4954974;29;20639;-79
2022/01/09 10:20:12;;;;;;;4.20;0.70;;;6.50;99.90;;;;;;4956176;28;20204;-73
2022/01/09 10:22:43;;;;;;;6.57;1.10;;;6.50;99.90;;;;;;4952921;28;20746;-78
2022/01/09 10:25:22;;;;;;;3.20;0.73;;;6.50;99.90;;;;;;4939388;29;20218;-80
2022/01/09 10:27:55;;;;;;;7.37;0.80;;;6.50;99.90;;;;;;4955332;28;20744;-77
2022/01/09 10:30:24;;;;;;;7.37;0.90;;;6.60;99.90;;;;;;4955991;28;20207;-77
2022/01/09 10:32:55;;;;;;;5.80;0.83;;;6.60;99.90;;;;;;4952149;28;20239;-74
2022/01/09 10:35:22;;;;;;;6.57;1.10;;;6.70;99.90;;;;;;4951226;29;20239;-74
2022/01/09 10:37:51;;;;;;;6.13;0.93;;;6.80;99.90;;;;;;4946816;28;20664;-77
2022/01/09 10:40:22;;;;;;;7.27;0.70;;;6.90;99.90;;;;;;4936596;29;20209;-78
2022/01/09 10:43:04;;;;;;;8.17;0.90;;;7.00;99.90;;;;;;4936564;29;20224;-80
2022/01/09 10:45:31;;;;;;;10.87;1.23;;;7.10;99.90;;;;;;4936730;29;20205;-80
2022/01/09 10:48:08;;;;;;;4.10;1.13;;;7.30;99.90;;;;;;4950674;29;20211;-76
2022/01/09 10:50:38;;;;;;;6.27;1.13;;;7.40;99.90;;;;;;4955196;28;20204;-79
2022/01/09 10:53:21;;;;;;;8.03;0.97;;;7.10;99.90;;;;;;4948756;28;20239;-77
2022/01/09 10:55:49;;;;;;;4.70;0.97;;;6.90;99.90;;;;;;4952294;28;20325;-79
2022/01/09 10:58:23;;;;;;;4.83;1.20;;;7.10;99.90;;;;;;4935970;29;20636;-79
2022/01/09 11:01:25;;;;;;;4.93;0.70;;;7.10;99.90;;;;;;4934881;29;20221;-77
2022/01/09 11:03:53;;;;;;;7.37;0.83;;;7.00;99.90;;;;;;4957718;28;20235;-75
2022/01/09 11:06:22;;;;;;;6.00;1.20;;;7.00;99.90;;;;;;4953023;28;20218;-75
2022/01/09 11:08:49;;;;;;;8.07;1.37;;;7.10;99.90;;;;;;4954492;28;20212;-75
2022/01/09 11:11:24;;;;;;;10.07;1.50;;;7.00;99.90;;;;;;4955213;28;20291;-82
2022/01/09 11:13:54;;;;;;;2.23;0.60;;;7.10;99.90;;;;;;4943066;28;20235;-81
2022/01/09 11:16:36;;;;;;;3.57;0.60;;;7.20;99.90;;;;;;4940229;29;20298;-81
2022/01/09 11:19:06;;;;;;;7.10;1.23;;;7.30;99.90;;;;;;4954588;28;20204;-78
2022/01/09 11:21:34;;;;;;;5.93;0.80;;;7.40;99.90;;;;;;4954489;28;20211;-82
2022/01/09 11:24:40;;;;;;;4.07;0.90;;;7.40;99.90;;;;;;4954384;28;20255;-85
2022/01/09 11:27:18;;;;;;;9.00;1.60;;;7.50;99.90;;;;;;4942267;28;20219;-80
2022/01/09 11:29:58;;;;;;;4.57;0.93;;;7.50;99.90;;;;;;4943562;29;20276;-77
2022/01/09 11:32:41;;;;;;;2.93;0.83;;;7.60;99.90;;;;;;4945635;29;20287;-76
2022/01/09 11:35:18;;;;;;;5.73;0.97;;;7.60;99.90;;;;;;4958111;29;20326;-77
2022/01/09 11:37:56;;;;;;;6.43;1.40;;;7.60;99.90;;;;;;4959580;28;20220;-74
2022/01/09 11:40:25;;;;;;;7.33;1.03;;;7.60;99.90;;;;;;4955906;28;20207;-74
2022/01/09 11:43:04;;;;;;;4.17;1.10;;;7.50;99.90;;;;;;4952220;28;20229;-73
2022/01/09 11:46:01;;;;;;;5.13;0.87;;;7.60;99.90;;;;;;4935748;29;20567;-76
2022/01/09 11:48:43;;;;;;;5.90;0.93;;;7.80;99.90;;;;;;4935561;29;20593;-76
2022/01/09 11:51:15;;;;;;;9.33;1.13;;;7.80;99.90;;;;;;4935653;29;20617;-80
2022/01/09 11:53:58;;;;;;;5.63;1.27;;;7.80;99.90;;;;;;4935558;29;20235;-76
2022/01/09 11:56:47;;;;;;;5.53;0.90;;;7.90;99.90;;;;;;4934116;29;20232;-75
2022/01/09 11:59:18;;;;;;;5.07;1.07;;;7.70;99.90;;;;;;4936054;29;20303;-74
2022/01/09 12:01:47;;;;;;;3.37;0.80;;;7.70;99.90;;;;;;4935572;29;20205;-74
2022/01/09 12:04:56;;;;;;;9.00;1.10;;;7.60;99.90;;;;;;4935653;29;20672;-74
2022/01/09 12:08:03;;;;;;;6.47;1.27;;;7.50;99.90;;;;;;4935730;29;20209;-74
2022/01/09 12:10:32;;;;;;;9.37;0.90;;;7.50;99.90;;;;;;4935638;29;20217;-74
2022/01/09 12:13:00;;;;;;;2.60;0.87;;;7.70;99.90;;;;;;4935509;29;20324;-73
2022/01/09 12:15:37;;;;;;;2.27;0.70;;;7.70;99.90;;;;;;4935546;29;20295;-73
2022/01/09 12:18:07;;;;;;;5.13;1.23;;;7.90;99.90;;;;;;4935627;29;20210;-72
2022/01/09 12:20:40;;;;;;;10.23;0.80;;;8.10;99.90;;;;;;4935430;29;20216;-74
2022/01/09 12:23:08;;;;;;;4.87;0.60;;;8.30;99.90;;;;;;4935181;29;20232;-74
2022/01/09 12:25:53;;;;;;;2.77;0.80;;;8.30;99.90;;;;;;4935413;29;20564;-74
2022/01/09 12:28:48;;;;;;;10.73;1.13;;;8.40;99.90;;;;;;4935439;29;20213;-74
2022/01/09 12:31:27;;;;;;;8.07;1.13;;;8.50;99.90;;;;;;4935211;29;20546;-74
2022/01/09 12:33:59;;;;;;;5.40;0.87;;;8.60;99.90;;;;;;4935482;29;20589;-74
2022/01/09 12:36:33;;;;;;;5.73;1.20;;;8.50;99.90;;;;;;4935090;29;20239;-74
2022/01/09 12:39:03;;;;;;;5.47;0.67;;;8.50;99.90;;;;;;4935352;29;20204;-74
2022/01/09 12:41:42;;;;;;;4.47;1.10;;;8.50;99.90;;;;;;4935203;29;20292;-75
2022/01/09 12:44:09;;;;;;;5.17;0.97;;;8.60;99.90;;;;;;4935378;29;20220;-74
2022/01/09 12:46:44;;;;;;;7.23;1.00;;;8.50;99.90;;;;;;4935032;29;20209;-75
2022/01/09 12:49:15;;;;;;;4.03;0.83;;;8.50;99.90;;;;;;4935649;29;20276;-74
2022/01/09 12:51:47;;;;;;;4.60;0.70;;;8.30;99.90;;;;;;4934687;29;20209;-75
2022/01/09 12:54:14;;;;;;;5.43;1.17;;;8.30;99.90;;;;;;4937825;29;20223;-74
2022/01/09 12:56:42;;;;;;;6.47;1.20;;;8.30;99.90;;;;;;4938573;29;20236;-74
2022/01/09 12:59:10;;;;;;;5.03;1.20;;;8.30;99.90;;;;;;4938553;29;20209;-74
2022/01/09 13:01:40;;;;;;;2.23;0.70;;;8.40;99.90;;;;;;4938731;29;20220;-74
2022/01/09 13:04:15;;;;;;;2.63;0.60;;;8.60;99.90;;;;;;4938640;29;20213;-73
2022/01/09 13:06:43;;;;;;;2.23;0.70;;;8.60;99.90;;;;;;4938487;29;20623;-74
2022/01/09 13:09:15;;;;;;;4.47;0.90;;;8.50;99.90;;;;;;4938416;29;20216;-73
2022/01/09 13:11:42;;;;;;;6.63;0.80;;;8.30;99.90;;;;;;4938179;29;20213;-74
2022/01/09 13:14:10;;;;;;;6.23;1.03;;;8.20;99.90;;;;;;4938861;29;20236;-73
2022/01/09 13:16:37;;;;;;;7.20;1.20;;;8.20;99.90;;;;;;4938378;29;20248;-74
2022/01/09 13:19:06;;;;;;;3.90;0.70;;;8.20;99.90;;;;;;4938255;29;20731;-74
2022/01/09 13:21:35;;;;;;;3.97;1.20;;;8.00;99.90;;;;;;4938212;29;20579;-74
2022/01/09 13:24:10;;;;;;;2.97;0.90;;;8.00;99.90;;;;;;4938092;29;20215;-73
2022/01/09 13:26:40;;;;;;;5.43;1.03;;;8.00;99.90;;;;;;4938024;29;20204;-74
2022/01/09 13:29:10;;;;;;;3.03;0.93;;;8.10;99.90;;;;;;4937993;29;20208;-73
2022/01/09 13:31:43;;;;;;;3.37;1.00;;;8.00;99.90;;;;;;4937837;29;20212;-73
2022/01/09 13:34:12;;;;;;;2.57;0.70;;;8.00;99.90;;;;;;4937765;29;20579;-73
2022/01/09 13:36:45;;;;;;;4.63;0.90;;;7.80;99.90;;;;;;4937336;29;20233;-74
2022/01/09 13:39:17;;;;;;;10.83;0.93;;;7.70;99.90;;;;;;4937975;29;20213;-74
2022/01/09 13:41:47;;;;;;;6.73;1.07;;;7.70;99.90;;;;;;4937719;29;20209;-74
2022/01/09 13:44:14;;;;;;;8.07;1.13;;;7.70;99.90;;;;;;4937844;29;20213;-74
2022/01/09 13:46:43;;;;;;;3.67;0.90;;;7.60;99.90;;;;;;4937716;29;20213;-73
2022/01/09 13:49:16;;;;;;;4.70;1.00;;;7.60;99.90;;;;;;4937449;29;20205;-74
2022/01/09 13:51:50;;;;;;;6.20;1.00;;;7.50;99.90;;;;;;4937283;29;20216;-74
2022/01/09 13:54:20;;;;;;;3.53;0.70;;;7.30;99.90;;;;;;4937517;29;20575;-73
2022/01/09 13:57:04;;;;;;;2.00;0.80;;;7.20;99.90;;;;;;4937471;29;20237;-74
2022/01/09 13:59:43;;;;;;;7.93;0.83;;;7.20;99.90;;;;;;4937363;29;20212;-73
2022/01/09 14:02:10;;;;;;;4.67;1.03;;;7.10;99.90;;;;;;4936966;29;20708;-74
2022/01/09 14:04:37;;;;;;;4.00;1.03;;;7.20;99.90;;;;;;4937137;29;20209;-73
2022/01/09 14:07:07;;;;;;;5.03;1.17;;;7.30;99.90;;;;;;4937148;29;20209;-73
2022/01/09 14:09:36;;;;;;;9.67;1.30;;;7.50;99.90;;;;;;4936916;29;20209;-74
2022/01/09 14:12:07;;;;;;;7.47;0.87;;;7.60;99.90;;;;;;4936975;29;20229;-74
2022/01/09 14:14:36;;;;;;;3.57;1.00;;;7.70;99.90;;;;;;4937287;29;20220;-73
2022/01/09 14:17:28;;;;;;;2.20;1.10;;;7.80;99.90;;;;;;4937071;29;20596;-74
2022/01/09 14:19:56;;;;;;;1.97;0.90;;;7.80;99.90;;;;;;4937473;29;20211;-73
2022/01/09 14:22:38;;;;;;;2.73;1.07;;;7.90;99.90;;;;;;4936685;29;20442;-74
2022/01/09 14:25:07;;;;;;;10.47;2.03;;;8.10;99.90;;;;;;4937154;29;20213;-73
2022/01/09 14:27:38;;;;;;;5.83;1.53;;;8.30;99.90;;;;;;4936905;29;20209;-74
2022/01/09 14:30:26;;;;;;;5.40;1.20;;;8.60;99.90;;;;;;4937106;29;20303;-74
2022/01/09 14:33:09;;;;;;;7.27;1.00;;;8.60;99.90;;;;;;4936669;29;20225;-74
2022/01/09 14:35:38;;;;;;;7.43;1.37;;;8.80;99.90;;;;;;4936672;29;20239;-73
2022/01/09 14:38:10;;;;;;;1.70;0.83;;;8.90;99.90;;;;;;4936404;29;20244;-74
2022/01/09 14:40:38;;;;;;;8.03;1.20;;;8.80;99.90;;;;;;4936771;29;20205;-74
2022/01/09 14:43:06;;;;;;;4.60;0.93;;;8.80;99.90;;;;;;4936635;29;20239;-74
2022/01/09 14:45:33;;;;;;;4.00;1.20;;;8.90;99.90;;;;;;4936501;29;20219;-73
2022/01/09 14:48:00;;;;;;;5.73;1.13;;;8.90;99.90;;;;;;4936878;29;20209;-73
2022/01/09 14:50:26;;;;;;;3.73;0.97;;;8.80;99.90;;;;;;4936652;29;20212;-73
2022/01/09 14:52:54;;;;;;;3.60;1.03;;;8.30;99.90;;;;;;4936579;29;20229;-74
2022/01/09 14:55:22;;;;;;;7.13;0.90;;;8.40;99.90;;;;;;4936338;29;20259;-74
2022/01/09 14:57:49;;;;;;;6.27;1.10;;;8.40;99.90;;;;;;4936381;29;20304;-74
2022/01/09 15:00:18;;;;;;;9.97;1.33;;;8.50;99.90;;;;;;4936405;29;20660;-74
2022/01/09 15:02:45;;;;;;;4.40;1.67;;;8.30;99.90;;;;;;4936075;29;20737;-74
2022/01/09 15:05:12;;;;;;;3.27;1.00;;;8.10;99.90;;;;;;4936505;29;20212;-73
2022/01/09 15:07:39;;;;;;;4.27;1.60;;;8.10;99.90;;;;;;4936224;29;20213;-74
2022/01/09 15:10:07;;;;;;;3.33;0.90;;;8.00;99.90;;;;;;4935996;29;20211;-74
2022/01/09 15:12:37;;;;;;;3.70;1.47;;;7.80;99.90;;;;;;4935626;29;20236;-74
2022/01/09 15:15:06;;;;;;;6.53;1.90;;;7.80;99.90;;;;;;4935933;29;20208;-74
2022/01/09 15:17:33;;;;;;;5.07;1.23;;;7.70;99.90;;;;;;4935850;29;20227;-73
2022/01/09 15:20:02;;;;;;;8.20;1.40;;;7.70;99.90;;;;;;4936306;29;20209;-73
2022/01/09 15:22:29;;;;;;;7.93;1.43;;;7.60;99.90;;;;;;4935973;29;20233;-74
2022/01/09 15:24:56;;;;;;;4.00;1.10;;;7.60;99.90;;;;;;4936016;29;20244;-73
2022/01/09 15:27:23;;;;;;;7.30;1.60;;;7.60;99.90;;;;;;4936450;29;20220;-73
2022/01/09 15:29:52;;;;;;;7.40;2.50;;;7.60;99.90;;;;;;4936083;29;20216;-74
